createdAt,value
2019-06-20T00:01:01.209Z,73.45
2019-06-20T00:03:29.841Z,73.46
2019-06-20T00:05:58.474Z,73.43
2019-06-20T00:08:27.047Z,73.48
2019-06-20T00:10:55.677Z,73.50
2019-06-20T00:13:24.349Z,73.78
2019-06-20T00:15:53.021Z,74.04
2019-06-20T00:18:21.712Z,73.77
2019-06-20T00:20:50.356Z,73.83
2019-06-20T00:23:18.965Z,73.81
2019-06-20T00:25:47.594Z,73.84
2019-06-20T00:28:16.327Z,73.83
2019-06-20T00:30:44.959Z,74.03
2019-06-20T00:33:13.580Z,73.96
2019-06-20T00:35:42.257Z,73.90
2019-06-20T00:38:10.916Z,74.02
2019-06-20T00:40:39.598Z,73.93
2019-06-20T00:43:17.633Z,74.01
2019-06-20T00:45:38.588Z,74.23
2019-06-20T00:48:07.257Z,73.40
2019-06-20T00:50:35.803Z,73.59
2019-06-20T00:53:04.424Z,73.56
2019-06-20T00:55:33.062Z,74.07
2019-06-20T00:58:01.777Z,74.31
2019-06-20T01:00:30.416Z,74.49
2019-06-20T01:02:59.083Z,74.91
2019-06-20T01:05:27.706Z,75.16
2019-06-20T01:07:56.322Z,75.60
2019-06-20T01:10:25.006Z,75.64
2019-06-20T01:12:53.618Z,75.70
2019-06-20T01:15:22.646Z,75.68
2019-06-20T01:17:51.274Z,76.02
2019-06-20T01:20:20.156Z,76.10
2019-06-20T01:22:48.873Z,76.50
2019-06-20T01:25:20.405Z,76.58
2019-06-20T01:27:48.970Z,76.75
2019-06-20T01:30:18.089Z,76.54
2019-06-20T01:32:46.656Z,76.88
2019-06-20T01:35:15.385Z,76.84
2019-06-20T01:37:44.035Z,76.73
2019-06-20T01:40:12.869Z,76.81
2019-06-20T01:42:41.547Z,76.68
2019-06-20T01:45:10.372Z,76.91
2019-06-20T01:47:39.011Z,76.72
2019-06-20T01:50:08.235Z,76.75
2019-06-20T01:52:36.931Z,76.40
2019-06-20T01:55:05.972Z,76.44
2019-06-20T01:57:34.586Z,76.44
2019-06-20T02:00:03.929Z,76.56
2019-06-20T02:02:32.531Z,76.64
2019-06-20T02:05:01.166Z,76.95
2019-06-20T02:07:29.803Z,77.32
2019-06-20T02:09:58.430Z,77.71
2019-06-20T02:12:27.000Z,77.40
2019-06-20T02:14:55.742Z,77.27
2019-06-20T02:17:24.379Z,77.39
2019-06-20T02:19:52.939Z,77.23
2019-06-20T02:22:21.629Z,77.25
2019-06-20T02:24:50.315Z,76.95
2019-06-20T02:27:18.963Z,76.86
2019-06-20T02:29:47.530Z,77.06
2019-06-20T02:32:16.221Z,77.17
2019-06-20T02:34:44.872Z,77.47
2019-06-20T02:37:13.357Z,77.81
2019-06-20T02:39:41.967Z,77.56
2019-06-20T02:42:10.601Z,78.24
2019-06-20T02:44:39.145Z,78.17
2019-06-20T02:47:07.793Z,78.10
2019-06-20T02:49:36.412Z,78.12
2019-06-20T02:52:05.160Z,77.86
2019-06-20T02:54:33.793Z,77.90
2019-06-20T02:57:02.481Z,77.58
2019-06-20T02:59:31.126Z,77.44
2019-06-20T03:01:59.753Z,76.74
2019-06-20T03:04:28.325Z,76.62
2019-06-20T03:06:56.917Z,76.67
2019-06-20T03:09:25.787Z,76.50
2019-06-20T03:11:54.449Z,76.57
2019-06-20T03:14:23.013Z,76.61
2019-06-20T03:16:51.657Z,76.32
2019-06-20T03:19:20.220Z,76.14
2019-06-20T03:21:48.736Z,75.79
2019-06-20T03:24:17.300Z,75.90
2019-06-20T03:26:46.090Z,75.17
2019-06-20T03:29:14.647Z,74.46
2019-06-20T03:31:43.373Z,74.21
2019-06-20T03:34:12.008Z,74.11
2019-06-20T03:36:40.642Z,73.81
2019-06-20T03:39:09.314Z,73.64
2019-06-20T03:41:37.946Z,73.70
2019-06-20T03:44:06.606Z,73.15
2019-06-20T03:46:35.193Z,73.24
2019-06-20T03:49:03.761Z,73.11
2019-06-20T03:51:32.394Z,73.46
2019-06-20T03:54:01.014Z,73.30
2019-06-20T03:56:29.732Z,72.86
2019-06-20T03:58:58.385Z,72.54
2019-06-20T04:01:26.961Z,72.33
2019-06-20T04:03:55.581Z,71.62
2019-06-20T04:06:24.330Z,71.35
2019-06-20T04:08:52.902Z,70.89
2019-06-20T04:11:21.477Z,70.69
2019-06-20T04:13:50.025Z,70.50
2019-06-20T04:16:18.611Z,70.89
2019-06-20T04:18:47.169Z,71.40
2019-06-20T04:21:15.793Z,70.93
2019-06-20T04:23:44.427Z,71.03
2019-06-20T04:26:13.099Z,71.16
2019-06-20T04:28:41.782Z,70.92
2019-06-20T04:31:10.316Z,70.93
2019-06-20T04:33:38.949Z,70.76
2019-06-20T04:36:07.602Z,71.31
2019-06-20T04:38:36.149Z,70.92
2019-06-20T04:41:04.792Z,72.14
2019-06-20T04:43:33.359Z,71.47
2019-06-20T04:46:09.529Z,71.38
2019-06-20T04:48:38.174Z,71.30
2019-06-20T04:51:06.849Z,71.35
2019-06-20T04:53:35.477Z,71.52
2019-06-20T04:56:05.793Z,71.20
2019-06-20T04:58:34.528Z,71.39
2019-06-20T05:01:03.267Z,71.32
2019-06-20T05:03:31.882Z,70.59
2019-06-20T05:06:00.508Z,70.05
2019-06-20T05:08:29.393Z,70.12
2019-06-20T05:10:58.033Z,69.39
2019-06-20T05:13:26.670Z,69.76
2019-06-20T05:15:55.305Z,68.82
2019-06-20T05:18:23.940Z,68.28
2019-06-20T05:20:52.574Z,68.08
2019-06-20T05:23:21.199Z,68.04
2019-06-20T05:25:49.833Z,67.40
2019-06-20T05:28:18.485Z,66.04
2019-06-20T05:30:48.164Z,65.59
2019-06-20T05:33:16.796Z,65.97
2019-06-20T05:35:45.445Z,64.36
2019-06-20T05:38:14.074Z,64.69
2019-06-20T05:40:42.713Z,65.63
2019-06-20T05:43:11.382Z,64.98
2019-06-20T05:45:44.003Z,63.87
2019-06-20T05:48:10.581Z,63.81
2019-06-20T05:50:40.648Z,64.11
2019-06-20T05:53:09.198Z,63.26
2019-06-20T05:55:37.952Z,63.85
2019-06-20T05:58:06.593Z,63.01
2019-06-20T06:00:36.230Z,61.75
2019-06-20T06:03:07.056Z,61.40
2019-06-20T06:05:35.333Z,60.47
2019-06-20T06:08:04.025Z,60.25
2019-06-20T06:10:32.592Z,58.24
2019-06-20T06:13:01.087Z,58.14
2019-06-20T06:15:29.727Z,57.96
2019-06-20T06:17:59.119Z,57.32
2019-06-20T06:20:27.772Z,57.79
2019-06-20T06:22:56.515Z,56.09
2019-06-20T06:25:25.162Z,56.76
2019-06-20T06:27:53.735Z,54.75
2019-06-20T06:30:22.383Z,54.62
2019-06-20T06:32:51.012Z,54.58
2019-06-20T06:35:19.888Z,53.66
2019-06-20T06:37:48.530Z,53.45
2019-06-20T06:40:17.770Z,51.96
2019-06-20T06:42:46.475Z,52.02
2019-06-20T06:45:15.545Z,52.46
2019-06-20T06:47:44.043Z,53.55
2019-06-20T06:50:12.873Z,53.90
2019-06-20T06:52:41.632Z,52.21
2019-06-20T06:55:10.535Z,51.07
2019-06-20T06:57:39.223Z,50.93
2019-06-20T07:00:10.769Z,51.93
2019-06-20T07:02:39.392Z,51.61
2019-06-20T07:05:08.846Z,50.44
2019-06-20T07:07:37.489Z,50.56
2019-06-20T07:10:09.544Z,48.67
2019-06-20T07:12:38.322Z,48.74
2019-06-20T07:15:08.978Z,49.02
2019-06-20T07:17:37.786Z,46.32
2019-06-20T07:20:09.882Z,46.77
2019-06-20T07:22:38.529Z,46.88
2019-06-20T07:25:08.783Z,47.68
2019-06-20T07:27:37.470Z,45.55
2019-06-20T07:30:08.120Z,45.76
2019-06-20T07:32:36.763Z,45.42
2019-06-20T07:35:07.459Z,44.56
2019-06-20T07:37:36.139Z,45.09
2019-06-20T07:40:10.889Z,43.59
2019-06-20T07:42:39.527Z,43.88
2019-06-20T07:45:09.576Z,41.57
2019-06-20T07:47:38.219Z,41.06
2019-06-20T07:50:12.130Z,40.12
2019-06-20T07:52:40.701Z,40.10
2019-06-20T07:55:09.647Z,38.05
2019-06-20T07:57:38.502Z,35.82
2019-06-20T08:00:12.171Z,34.26
2019-06-20T08:02:40.811Z,30.72
2019-06-20T08:05:10.269Z,29.72
2019-06-20T08:07:38.907Z,27.59
2019-06-20T08:10:15.737Z,25.41
2019-06-20T08:12:44.307Z,24.93
2019-06-20T08:15:15.815Z,21.15
2019-06-20T08:17:44.905Z,20.38
2019-06-20T08:20:15.622Z,17.63
2019-06-20T08:22:44.642Z,18.39
2019-06-20T08:25:13.788Z,15.86
2019-06-20T08:27:52.874Z,13.98
2019-06-20T08:30:32.142Z,13.88
2019-06-20T08:33:03.551Z,13.68
2019-06-20T08:35:32.522Z,12.01
2019-06-20T08:38:03.593Z,11.99
2019-06-20T08:40:33.735Z,11.09
2019-06-20T08:43:03.982Z,11.23
2019-06-20T08:45:34.013Z,11.89
2019-06-20T08:48:04.621Z,10.29
2019-06-20T08:50:33.548Z,9.58
2019-06-20T08:53:03.549Z,10.39
2019-06-20T08:55:32.421Z,9.03
2019-06-20T08:58:01.625Z,8.93
2019-06-20T09:00:32.912Z,8.50
2019-06-20T09:05:31.478Z,8.17
2019-06-20T09:10:41.090Z,8.30
2019-06-20T09:13:11.827Z,8.51
2019-06-20T09:15:41.645Z,7.97
2019-06-20T09:18:10.295Z,8.42
2019-06-20T09:20:39.719Z,8.33
2019-06-20T09:23:08.339Z,7.96
2019-06-20T09:25:37.163Z,9.37
2019-06-20T09:28:06.282Z,7.45
2019-06-20T09:30:35.996Z,7.50
2019-06-20T09:33:04.839Z,7.67
2019-06-20T09:35:33.581Z,7.74
2019-06-20T09:38:03.460Z,7.95
2019-06-20T09:40:33.738Z,7.81
2019-06-20T09:43:02.878Z,9.01
2019-06-20T09:45:31.997Z,7.79
2019-06-20T09:48:00.555Z,7.52
2019-06-20T09:50:29.247Z,7.48
2019-06-20T09:52:58.431Z,6.25
2019-06-20T09:55:27.243Z,6.93
2019-06-20T09:57:56.019Z,7.02
2019-06-20T10:00:26.473Z,6.30
2019-06-20T10:02:56.269Z,6.28
2019-06-20T10:05:25.551Z,5.55
2019-06-20T10:07:54.699Z,5.12
2019-06-20T10:10:28.838Z,5.53
2019-06-20T10:12:58.008Z,5.45
2019-06-20T10:15:29.133Z,6.59
2019-06-20T10:17:57.783Z,5.92
2019-06-20T10:20:26.822Z,5.13
2019-06-20T10:22:55.700Z,5.28
2019-06-20T10:25:25.027Z,5.37
2019-06-20T10:27:54.053Z,4.88
2019-06-20T10:30:25.445Z,5.39
2019-06-20T10:32:54.102Z,6.68
2019-06-20T10:35:22.789Z,5.73
2019-06-20T10:37:53.027Z,5.72
2019-06-20T10:40:22.612Z,6.02
2019-06-20T10:42:52.775Z,5.80
2019-06-20T10:45:23.872Z,6.50
2019-06-20T10:47:53.083Z,7.08
2019-06-20T10:50:22.435Z,8.15
2019-06-20T10:52:51.850Z,8.80
2019-06-20T10:55:20.994Z,12.72
2019-06-20T10:57:50.026Z,12.72
2019-06-20T11:00:30.170Z,15.00
2019-06-20T11:02:51.273Z,16.37
2019-06-20T11:05:20.248Z,17.55
2019-06-20T11:07:49.951Z,19.29
2019-06-20T11:10:19.591Z,20.20
2019-06-20T11:12:54.899Z,21.88
2019-06-20T11:15:19.625Z,21.24
2019-06-20T11:17:48.490Z,22.01
2019-06-20T11:20:17.412Z,21.33
2019-06-20T11:22:47.591Z,22.07
2019-06-20T11:25:19.115Z,23.03
2019-06-20T11:27:47.481Z,23.45
2019-06-20T11:30:21.685Z,23.66
2019-06-20T11:32:50.283Z,23.69
2019-06-20T11:35:18.906Z,24.46
2019-06-20T11:37:47.589Z,25.41
2019-06-20T11:40:16.811Z,24.62
2019-06-20T11:42:46.825Z,25.19
2019-06-20T11:45:16.790Z,26.77
2019-06-20T11:47:47.178Z,27.53
2019-06-20T11:50:17.913Z,26.03
2019-06-20T11:52:46.581Z,25.48
2019-06-20T11:55:15.622Z,26.54
2019-06-20T11:57:44.501Z,25.79
2019-06-20T12:00:14.755Z,26.01
2019-06-20T12:02:44.226Z,25.59
2019-06-20T12:05:13.784Z,26.34
2019-06-20T12:07:43.853Z,26.80
2019-06-20T12:10:14.762Z,27.15
2019-06-20T12:12:44.730Z,25.61
2019-06-20T12:15:14.054Z,25.53
2019-06-20T12:17:43.399Z,26.31
2019-06-20T12:20:14.974Z,28.30
2019-06-20T12:22:44.994Z,30.26
2019-06-20T12:25:16.721Z,31.80
2019-06-20T12:27:45.695Z,32.46
2019-06-20T12:30:16.299Z,32.88
2019-06-20T12:32:44.971Z,35.57
2019-06-20T12:35:14.051Z,36.00
2019-06-20T12:37:42.960Z,37.13
2019-06-20T12:40:12.366Z,36.01
2019-06-20T12:42:42.806Z,36.58
2019-06-20T12:45:14.422Z,38.37
2019-06-20T12:47:43.840Z,39.48
2019-06-20T12:50:14.098Z,50.96
2019-06-20T12:52:42.802Z,60.92
2019-06-20T12:55:13.249Z,68.53
2019-06-20T12:57:42.357Z,72.54
2019-06-20T13:00:12.703Z,76.27
2019-06-20T13:02:41.958Z,81.34
2019-06-20T13:05:13.676Z,83.81
2019-06-20T13:07:42.474Z,86.20
2019-06-20T13:10:12.532Z,87.22
2019-06-20T13:12:42.682Z,89.33
2019-06-20T13:15:11.940Z,87.94
2019-06-20T13:17:41.959Z,88.95
2019-06-20T13:20:11.554Z,90.06
2019-06-20T13:22:41.319Z,91.88
2019-06-20T13:25:10.661Z,91.88
2019-06-20T13:27:40.963Z,91.68
2019-06-20T13:30:11.424Z,92.11
2019-06-20T13:32:41.667Z,91.89
2019-06-20T13:35:10.862Z,91.73
2019-06-20T13:37:40.224Z,91.50
2019-06-20T13:40:13.803Z,93.94
2019-06-20T13:42:44.083Z,92.38
2019-06-20T13:45:18.539Z,91.88
2019-06-20T13:47:47.786Z,92.69
2019-06-20T13:50:17.473Z,89.14
2019-06-20T13:52:47.229Z,91.31
2019-06-20T13:55:16.702Z,92.55
2019-06-20T13:57:47.034Z,93.09
2019-06-20T14:00:18.046Z,91.84
2019-06-20T14:02:47.401Z,92.24
2019-06-20T14:05:17.680Z,89.62
2019-06-20T14:07:48.395Z,87.28
2019-06-20T14:10:18.507Z,87.79
2019-06-20T14:12:48.630Z,86.35
2019-06-20T14:15:18.887Z,89.03
2019-06-20T14:17:49.414Z,88.13
2019-06-20T14:20:18.986Z,87.45
2019-06-20T14:22:49.147Z,89.82
2019-06-20T14:25:19.494Z,86.62
2019-06-20T14:27:48.964Z,87.04
2019-06-20T14:30:18.076Z,89.03
2019-06-20T14:32:47.231Z,87.29
2019-06-20T14:35:16.366Z,86.23
2019-06-20T14:37:46.050Z,87.00
2019-06-20T14:40:16.543Z,86.78
2019-06-20T14:42:45.954Z,86.99
2019-06-20T14:45:15.505Z,87.82
2019-06-20T14:47:44.315Z,87.83
2019-06-20T14:50:14.541Z,85.54
2019-06-20T14:52:44.557Z,84.81
2019-06-20T14:55:13.926Z,85.36
2019-06-20T14:57:44.587Z,84.88
2019-06-20T15:00:14.630Z,84.53
2019-06-20T15:02:45.114Z,83.12
2019-06-20T15:05:18.313Z,81.85
2019-06-20T15:07:47.774Z,80.97
2019-06-20T15:10:18.697Z,79.56
2019-06-20T15:12:48.320Z,80.62
2019-06-20T15:15:18.094Z,79.32
2019-06-20T15:17:49.941Z,74.93
2019-06-20T15:20:17.795Z,75.29
2019-06-20T15:22:47.439Z,72.59
2019-06-20T15:25:17.063Z,74.37
2019-06-20T15:27:47.492Z,76.03
2019-06-20T15:30:16.211Z,76.94
2019-06-20T15:32:55.305Z,76.67
2019-06-20T15:35:15.532Z,77.75
2019-06-20T15:37:44.299Z,78.18
2019-06-20T15:40:13.416Z,77.56
2019-06-20T15:42:42.050Z,76.53
2019-06-20T15:45:12.119Z,77.94
2019-06-20T15:47:40.814Z,77.09
2019-06-20T15:50:09.782Z,76.55
2019-06-20T15:52:38.418Z,77.35
2019-06-20T15:55:07.170Z,78.36
2019-06-20T15:57:35.905Z,78.51
2019-06-20T16:00:09.142Z,79.26
2019-06-20T16:02:37.798Z,80.61
2019-06-20T16:05:08.035Z,81.04
2019-06-20T16:07:36.801Z,80.29
2019-06-20T16:10:09.472Z,80.77
2019-06-20T16:12:38.183Z,79.88
2019-06-20T16:15:08.430Z,79.85
2019-06-20T16:17:37.085Z,78.61
2019-06-20T16:20:09.116Z,79.18
2019-06-20T16:22:37.752Z,75.32
2019-06-20T16:25:06.892Z,75.89
2019-06-20T16:27:35.521Z,76.51
2019-06-20T16:30:06.406Z,75.54
2019-06-20T16:32:35.040Z,75.78
2019-06-20T16:35:05.566Z,74.64
2019-06-20T16:37:34.201Z,75.69
2019-06-20T16:40:02.793Z,72.52
2019-06-20T16:42:31.431Z,72.55
2019-06-20T16:45:00.065Z,74.02
2019-06-20T16:47:28.705Z,73.34
2019-06-20T16:49:57.325Z,73.25
2019-06-20T16:52:26.051Z,71.34
2019-06-20T16:54:54.680Z,70.94
2019-06-20T16:57:23.342Z,72.61
2019-06-20T16:59:51.945Z,71.37
2019-06-20T17:02:20.637Z,70.92
2019-06-20T17:04:49.283Z,70.22
2019-06-20T17:07:17.912Z,70.34
2019-06-20T17:09:46.548Z,71.21
2019-06-20T17:12:15.580Z,69.39
2019-06-20T17:14:44.247Z,71.95
2019-06-20T17:17:12.872Z,71.63
2019-06-20T17:19:42.277Z,70.06
2019-06-20T17:22:11.037Z,69.95
2019-06-20T17:24:39.729Z,70.61
2019-06-20T17:27:08.370Z,71.97
2019-06-20T17:29:37.000Z,72.87
2019-06-20T17:32:05.647Z,72.67
2019-06-20T17:34:34.203Z,75.23
2019-06-20T17:37:02.804Z,73.20
2019-06-20T17:39:31.342Z,74.37
2019-06-20T17:42:00.137Z,71.63
2019-06-20T17:44:28.753Z,74.01
2019-06-20T17:46:57.452Z,72.32
2019-06-20T17:49:26.109Z,74.86
2019-06-20T17:51:54.755Z,76.78
2019-06-20T17:54:23.387Z,75.61
2019-06-20T17:56:52.026Z,77.95
2019-06-20T17:59:22.795Z,78.67
2019-06-20T18:01:51.260Z,79.61
2019-06-20T18:04:19.974Z,79.65
2019-06-20T18:06:48.622Z,80.85
2019-06-20T18:09:17.265Z,81.23
2019-06-20T18:11:45.918Z,81.99
2019-06-20T18:14:14.587Z,82.39
2019-06-20T18:16:43.285Z,83.54
2019-06-20T18:19:11.990Z,85.56
2019-06-20T18:21:40.923Z,85.12
2019-06-20T18:24:09.577Z,85.51
2019-06-20T18:26:38.187Z,85.14
2019-06-20T18:29:06.773Z,85.09
2019-06-20T18:31:35.411Z,84.69
2019-06-20T18:34:04.137Z,85.71
2019-06-20T18:36:32.771Z,84.70
2019-06-20T18:39:01.503Z,84.69
2019-06-20T18:41:30.130Z,85.08
2019-06-20T18:43:58.678Z,84.87
2019-06-20T18:46:27.308Z,84.96
2019-06-20T18:48:55.947Z,85.11
2019-06-20T18:51:24.595Z,85.44
2019-06-20T18:53:53.228Z,85.04
2019-06-20T18:56:21.882Z,85.43
2019-06-20T18:58:50.528Z,85.40
2019-06-20T19:01:19.256Z,85.42
2019-06-20T19:03:47.885Z,84.65
2019-06-20T19:06:16.508Z,84.31
2019-06-20T19:08:45.364Z,83.35
2019-06-20T19:11:13.991Z,84.28
2019-06-20T19:13:42.629Z,84.09
2019-06-20T19:16:11.425Z,83.86
2019-06-20T19:18:40.115Z,84.65
2019-06-20T19:21:08.672Z,84.77
2019-06-20T19:23:37.323Z,83.18
2019-06-20T19:26:05.969Z,83.03
2019-06-20T19:28:34.818Z,83.34
2019-06-20T19:31:03.497Z,81.91
2019-06-20T19:33:32.129Z,82.85
2019-06-20T19:36:00.792Z,83.16
2019-06-20T19:38:29.435Z,83.05
2019-06-20T19:40:58.072Z,83.82
2019-06-20T19:43:26.641Z,83.77
2019-06-20T19:45:55.287Z,84.29
2019-06-20T19:48:23.948Z,84.29
2019-06-20T19:50:52.602Z,83.37
2019-06-20T19:53:21.367Z,83.79
2019-06-20T19:55:50.103Z,82.74
2019-06-20T19:58:18.768Z,83.30
2019-06-20T20:00:47.406Z,84.16
2019-06-20T20:03:16.266Z,84.14
2019-06-20T20:05:45.321Z,84.26
2019-06-20T20:08:14.006Z,83.62
2019-06-20T20:10:49.824Z,83.79
2019-06-20T20:13:18.958Z,84.07
2019-06-20T20:15:48.308Z,83.66
2019-06-20T20:18:17.176Z,82.98
2019-06-20T20:20:48.936Z,82.90
2019-06-20T20:23:17.714Z,82.14
2019-06-20T20:25:46.353Z,84.04
2019-06-20T20:28:14.974Z,83.36
2019-06-20T20:30:43.660Z,83.77
2019-06-20T20:33:12.517Z,83.89
2019-06-20T20:35:41.192Z,83.01
2019-06-20T20:38:09.748Z,83.66
2019-06-20T20:40:38.452Z,82.90
2019-06-20T20:43:07.105Z,81.31
2019-06-20T20:45:35.738Z,83.11
2019-06-20T20:48:04.611Z,81.13
2019-06-20T20:50:33.265Z,82.52
2019-06-20T20:53:01.888Z,83.33
2019-06-20T20:55:30.457Z,81.79
2019-06-20T20:57:59.087Z,82.47
2019-06-20T21:00:42.391Z,82.31
2019-06-20T21:03:11.178Z,81.27
2019-06-20T21:05:51.025Z,81.29
2019-06-20T21:08:10.236Z,81.63
2019-06-20T21:10:38.906Z,81.27
2019-06-20T21:13:07.650Z,82.36
2019-06-20T21:15:36.284Z,81.94
2019-06-20T21:18:05.109Z,81.91
2019-06-20T21:20:33.777Z,82.15
2019-06-20T21:23:02.456Z,83.05
2019-06-20T21:25:32.346Z,83.07
2019-06-20T21:28:01.146Z,83.66
2019-06-20T21:30:29.882Z,82.40
2019-06-20T21:32:58.471Z,82.41
2019-06-20T21:35:27.319Z,83.44
2019-06-20T21:37:55.955Z,83.24
2019-06-20T21:40:24.622Z,82.89
2019-06-20T21:42:53.327Z,83.40
2019-06-20T21:45:22.277Z,83.61
2019-06-20T21:47:50.923Z,83.62
2019-06-20T21:50:19.853Z,82.30
2019-06-20T21:52:48.688Z,79.75
2019-06-20T21:55:17.513Z,80.97
2019-06-20T21:57:46.150Z,81.66
2019-06-20T22:00:28.342Z,80.61
2019-06-20T22:02:57.120Z,81.07
2019-06-20T22:05:25.727Z,81.19
2019-06-20T22:07:54.353Z,82.37
2019-06-20T22:10:23.166Z,80.22
2019-06-20T22:12:51.801Z,81.13
2019-06-20T22:15:20.996Z,81.37
2019-06-20T22:17:49.659Z,80.93
2019-06-20T22:20:19.201Z,81.26
2019-06-20T22:22:47.758Z,80.62
2019-06-20T22:25:16.822Z,80.41
2019-06-20T22:27:45.380Z,80.65
2019-06-20T22:30:14.605Z,81.14
2019-06-20T22:32:43.261Z,81.60
2019-06-20T22:35:12.205Z,82.89
2019-06-20T22:37:40.976Z,85.04
2019-06-20T22:40:10.407Z,84.51
2019-06-20T22:42:39.111Z,85.24
2019-06-20T22:45:08.847Z,85.08
2019-06-20T22:47:37.683Z,86.56
2019-06-20T22:50:10.277Z,85.80
2019-06-20T22:52:38.900Z,86.27
2019-06-20T22:55:08.327Z,85.79
2019-06-20T22:57:36.968Z,86.10
2019-06-20T23:00:07.806Z,85.64
2019-06-20T23:02:36.614Z,86.35
2019-06-20T23:05:07.263Z,87.69
2019-06-20T23:07:35.901Z,87.18
2019-06-20T23:10:11.231Z,86.10
2019-06-20T23:12:39.772Z,85.49
2019-06-20T23:15:09.147Z,84.68
2019-06-20T23:17:37.774Z,84.06
2019-06-20T23:20:08.060Z,84.71
2019-06-20T23:22:36.641Z,84.83
2019-06-20T23:25:07.239Z,84.14
2019-06-20T23:27:35.877Z,83.90
2019-06-20T23:30:11.989Z,83.23
2019-06-20T23:32:40.847Z,82.91
2019-06-20T23:35:10.081Z,81.79
2019-06-20T23:37:38.707Z,82.78
2019-06-20T23:40:09.215Z,82.33
2019-06-20T23:42:37.848Z,82.14
2019-06-20T23:45:08.015Z,81.78
2019-06-20T23:47:36.649Z,81.46
2019-06-20T23:50:09.130Z,82.01
2019-06-20T23:52:41.934Z,81.61
2019-06-20T23:55:10.657Z,82.34
2019-06-20T23:57:39.428Z,82.40
